LFRU/MXN METAR and TAF weather

Enter ICAO airport designator
Station Type Date Time Source
LFRU METAR 2019/10/13 20:00 UTC NOAA

LFRU 132000Z AUTO 16005KT CAVOK 13/10 Q1010


Station Type Date Time Source
LFRU Decoded METAR 2019/10/13 20:00 UTC NOAA

Morlaix / Ploujean, France (LFRU) 48-36N 003-49W
Oct 13, 2019 - 04:00 PM EDT / 2019.10.13 2000 UTC
Wind: from the SSE (160 degrees) at 6 MPH (5 KT):0
Visibility: greater than 7 mile(s):0
Temperature: 55 F (13 C)
Dew Point: 50 F (10 C)
Relative Humidity: 81%
Pressure (altimeter): 29.83 in. Hg (1010 hPa)
ob: LFRU 132000Z AUTO 16005KT CAVOK 13/10 Q1010
cycle: 20

Station Type Date Time Source
LFRU TAF UTC NOAA

Error!

Example: see airport list